createdAt,value
2018-10-12T00:01:33.102Z,12.50
2018-10-12T00:04:02.796Z,12.27
2018-10-12T00:06:32.485Z,12.47
2018-10-12T00:09:02.695Z,14.77
2018-10-12T00:11:32.377Z,12.70
2018-10-12T00:14:02.026Z,12.20
2018-10-12T00:16:31.685Z,13.83
2018-10-12T00:19:01.800Z,14.23
2018-10-12T00:21:31.440Z,14.03
2018-10-12T00:24:01.150Z,12.80
2018-10-12T00:26:30.900Z,14.43
2018-10-12T00:29:00.637Z,11.60
2018-10-12T00:31:30.416Z,11.93
2018-10-12T00:34:00.551Z,13.77
2018-10-12T00:36:31.218Z,13.23
2018-10-12T00:39:00.956Z,15.47
2018-10-12T00:41:31.351Z,17.73
2018-10-12T00:44:01.418Z,15.43
2018-10-12T00:47:33.409Z,13.43
2018-10-12T00:50:03.083Z,11.70
2018-10-12T00:52:33.570Z,16.27
2018-10-12T00:55:03.196Z,13.67
2018-10-12T00:57:32.882Z,14.20
2018-10-12T01:00:02.558Z,11.57
2018-10-12T01:02:32.550Z,13.77
2018-10-12T01:05:02.228Z,11.63
2018-10-12T01:07:31.915Z,17.20
2018-10-12T01:10:02.072Z,16.27
2018-10-12T01:12:36.418Z,15.53
2018-10-12T01:15:06.586Z,12.50
2018-10-12T01:17:37.469Z,14.30
2018-10-12T01:20:07.349Z,13.83
2018-10-12T01:22:37.048Z,12.00
2018-10-12T01:25:07.529Z,16.80
2018-10-12T01:27:37.183Z,17.13
2018-10-12T01:30:08.200Z,13.80
2018-10-12T01:32:46.748Z,16.17
2018-10-12T01:35:16.402Z,12.27
2018-10-12T01:37:46.985Z,12.67
2018-10-12T01:40:16.588Z,17.67
2018-10-12T01:42:46.235Z,13.67
2018-10-12T01:45:15.881Z,17.23
2018-10-12T01:47:46.119Z,13.50
2018-10-12T01:50:15.869Z,15.50
2018-10-12T01:52:45.641Z,16.83
2018-10-12T01:55:15.765Z,13.27
2018-10-12T01:57:46.893Z,16.43
2018-10-12T02:00:16.565Z,13.30
2018-10-12T02:02:46.207Z,22.30
2018-10-12T02:05:16.858Z,13.80
2018-10-12T02:07:46.543Z,12.73
2018-10-12T02:10:16.231Z,11.63
2018-10-12T02:12:45.845Z,14.77
2018-10-12T02:15:15.554Z,12.00
2018-10-12T02:17:45.679Z,12.10
2018-10-12T02:20:16.334Z,11.90
2018-10-12T02:22:46.724Z,12.27
2018-10-12T02:25:16.706Z,14.30
2018-10-12T02:27:46.345Z,14.03
2018-10-12T02:30:16.069Z,12.13
2018-10-12T02:32:45.663Z,11.33
2018-10-12T02:35:15.957Z,10.90
2018-10-12T02:37:45.654Z,13.70
2018-10-12T02:40:15.302Z,12.80
2018-10-12T02:42:44.928Z,11.53
2018-10-12T02:45:15.066Z,12.57
2018-10-12T02:47:44.746Z,13.03
2018-10-12T02:50:14.401Z,10.90
2018-10-12T02:52:44.057Z,12.27
2018-10-12T02:55:13.706Z,11.73
2018-10-12T02:57:43.396Z,9.47
2018-10-12T03:00:13.061Z,13.20
2018-10-12T03:02:43.061Z,11.07
2018-10-12T03:05:12.682Z,10.73
2018-10-12T03:07:42.351Z,13.33
2018-10-12T03:10:12.661Z,11.80
2018-10-12T03:12:43.240Z,10.30
2018-10-12T03:15:14.068Z,10.73
2018-10-12T03:17:44.221Z,9.80
2018-10-12T03:20:13.897Z,12.30
2018-10-12T03:22:43.529Z,9.77
2018-10-12T03:25:13.299Z,13.13
2018-10-12T03:27:53.754Z,9.43
2018-10-12T03:30:23.430Z,11.27
2018-10-12T03:32:55.278Z,10.40
2018-10-12T03:35:25.944Z,11.57
2018-10-12T03:37:56.270Z,10.83
2018-10-12T03:40:26.018Z,11.57
2018-10-12T03:42:55.683Z,10.73
2018-10-12T03:45:25.494Z,10.63
2018-10-12T03:47:55.671Z,15.63
2018-10-12T03:50:25.317Z,13.10
2018-10-12T03:52:54.970Z,11.80
2018-10-12T03:55:24.673Z,10.10
2018-10-12T03:57:55.215Z,14.83
2018-10-12T04:00:24.857Z,9.80
2018-10-12T04:02:54.895Z,9.00
2018-10-12T04:05:25.315Z,12.07
2018-10-12T04:07:54.974Z,10.47
2018-10-12T04:10:25.100Z,10.30
2018-10-12T04:12:55.109Z,14.53
2018-10-12T04:15:24.838Z,11.20
2018-10-12T04:17:54.518Z,9.37
2018-10-12T04:20:26.957Z,9.50
2018-10-12T04:22:58.792Z,12.73
2018-10-12T04:25:29.119Z,11.23
2018-10-12T04:27:58.765Z,11.07
2018-10-12T04:30:30.236Z,12.03
2018-10-12T04:33:00.726Z,10.77
2018-10-12T04:35:30.368Z,11.17
2018-10-12T04:38:00.036Z,13.73
2018-10-12T04:41:09.695Z,10.03
2018-10-12T04:43:39.760Z,15.33
2018-10-12T04:46:12.849Z,10.87
2018-10-12T04:48:43.318Z,12.17
2018-10-12T04:51:20.942Z,14.47
2018-10-12T04:53:50.967Z,15.47
2018-10-12T04:56:21.601Z,12.47
2018-10-12T04:58:51.258Z,15.17
2018-10-12T05:01:28.348Z,10.43
2018-10-12T05:03:58.022Z,13.20
2018-10-12T05:06:27.711Z,13.30
2018-10-12T05:08:57.701Z,9.40
2018-10-12T05:11:27.388Z,9.57
2018-10-12T05:13:57.051Z,13.27
2018-10-12T05:16:26.710Z,13.10
2018-10-12T05:18:56.677Z,11.07
2018-10-12T05:21:26.358Z,12.20
2018-10-12T05:23:56.041Z,11.63
2018-10-12T05:26:25.766Z,10.23
2018-10-12T05:28:55.495Z,11.33
2018-10-12T05:31:25.176Z,14.00
2018-10-12T05:33:55.350Z,12.90
2018-10-12T05:36:25.070Z,9.83
2018-10-12T05:38:54.773Z,11.77
2018-10-12T05:41:24.441Z,10.30
2018-10-12T05:43:57.954Z,11.50
2018-10-12T05:46:32.460Z,10.63
2018-10-12T05:49:12.613Z,9.87
2018-10-12T05:51:42.318Z,11.43
2018-10-12T05:54:11.998Z,8.67
2018-10-12T05:56:41.706Z,12.27
2018-10-12T05:59:11.334Z,12.53
2018-10-12T06:01:41.502Z,9.73
2018-10-12T06:04:12.786Z,7.97
2018-10-12T06:06:42.452Z,9.27
2018-10-12T06:09:12.073Z,7.57
2018-10-12T06:11:41.756Z,9.97
2018-10-12T06:14:13.065Z,8.77
2018-10-12T06:16:42.783Z,9.07
2018-10-12T06:19:12.920Z,9.90
2018-10-12T06:21:43.142Z,10.23
2018-10-12T06:24:12.779Z,10.47
2018-10-12T06:26:44.368Z,10.77
2018-10-12T06:29:13.999Z,7.93
2018-10-12T06:31:43.666Z,15.17
2018-10-12T06:34:13.319Z,15.63
2018-10-12T06:36:46.635Z,10.43
2018-10-12T06:39:17.150Z,11.00
2018-10-12T06:41:47.566Z,12.00
2018-10-12T06:44:17.737Z,8.97
2018-10-12T06:46:47.704Z,8.97
2018-10-12T06:49:17.869Z,10.60
2018-10-12T06:51:48.580Z,11.93
2018-10-12T06:54:19.089Z,8.73
2018-10-12T06:56:49.274Z,12.53
2018-10-12T06:59:19.402Z,9.40
2018-10-12T07:01:49.650Z,10.33
2018-10-12T07:04:19.273Z,11.57
2018-10-12T07:06:49.399Z,10.00
2018-10-12T07:09:19.143Z,7.63
2018-10-12T07:11:49.459Z,8.00
2018-10-12T07:14:19.129Z,9.93
2018-10-12T07:16:49.223Z,9.83
2018-10-12T07:19:19.497Z,7.43
2018-10-12T07:21:49.681Z,8.73
2018-10-12T07:24:19.325Z,7.90
2018-10-12T07:26:49.181Z,9.37
2018-10-12T07:29:24.224Z,9.43
2018-10-12T07:31:54.110Z,11.37
2018-10-12T07:34:24.317Z,10.70
2018-10-12T07:36:55.289Z,9.87
2018-10-12T07:39:26.861Z,11.50
2018-10-12T07:41:56.525Z,10.63
2018-10-12T07:44:26.170Z,7.50
2018-10-12T07:46:55.836Z,8.27
2018-10-12T07:49:25.794Z,7.20
2018-10-12T07:51:59.258Z,7.47
2018-10-12T07:54:29.863Z,9.33
2018-10-12T07:57:04.546Z,6.90
2018-10-12T07:59:35.595Z,6.80
2018-10-12T08:02:07.137Z,7.37
2018-10-12T08:04:38.420Z,5.50
2018-10-12T08:07:09.281Z,6.97
2018-10-12T08:09:39.471Z,6.83
2018-10-12T08:12:09.953Z,8.03
2018-10-12T08:14:40.401Z,6.07
2018-10-12T08:17:10.932Z,14.37
2018-10-12T08:19:41.041Z,7.20
2018-10-12T08:22:11.602Z,6.50
2018-10-12T08:24:42.966Z,5.97
2018-10-12T08:27:13.281Z,6.87
2018-10-12T08:29:43.930Z,5.57
2018-10-12T08:32:13.673Z,7.40
2018-10-12T08:34:48.419Z,7.47
2018-10-12T08:37:19.592Z,8.17
2018-10-12T08:39:49.490Z,5.17
2018-10-12T08:42:19.166Z,10.53
2018-10-12T08:44:49.678Z,5.83
2018-10-12T08:47:23.726Z,5.83
2018-10-12T08:49:54.766Z,5.63
2018-10-12T08:52:24.418Z,6.30
2018-10-12T08:54:54.029Z,6.63
2018-10-12T08:57:23.741Z,5.30
2018-10-12T08:59:58.005Z,6.23
2018-10-12T09:02:28.528Z,6.03
2018-10-12T09:04:58.499Z,5.47
2018-10-12T09:07:29.267Z,6.67
2018-10-12T09:09:59.052Z,5.17
2018-10-12T09:12:28.994Z,8.20
2018-10-12T09:14:58.708Z,6.13
2018-10-12T09:17:28.456Z,7.27
2018-10-12T09:19:58.114Z,6.00
2018-10-12T09:22:28.268Z,6.63
2018-10-12T09:24:57.901Z,6.33
2018-10-12T09:27:28.134Z,7.87
2018-10-12T09:29:57.741Z,9.43
2018-10-12T09:32:27.416Z,11.43
2018-10-12T09:34:59.243Z,12.60
2018-10-12T09:37:32.603Z,8.17
2018-10-12T09:40:03.281Z,8.27
2018-10-12T09:42:32.929Z,8.17
2018-10-12T09:45:02.629Z,10.87
2018-10-12T09:47:34.296Z,9.13
2018-10-12T09:50:06.322Z,8.67
2018-10-12T09:52:37.421Z,8.40
2018-10-12T09:55:07.078Z,8.97
2018-10-12T09:57:39.089Z,8.03
2018-10-12T10:00:14.103Z,10.30
2018-10-12T10:02:49.559Z,9.73
2018-10-12T10:05:21.551Z,6.70
2018-10-12T10:07:54.053Z,7.13
2018-10-12T10:10:25.464Z,8.87
2018-10-12T10:12:55.680Z,6.50
2018-10-12T10:15:25.368Z,8.60
2018-10-12T10:17:55.082Z,8.50
2018-10-12T10:20:26.180Z,7.70
2018-10-12T10:22:57.280Z,8.03
2018-10-12T10:25:28.540Z,6.47
2018-10-12T10:27:59.044Z,7.30
2018-10-12T10:30:29.360Z,6.20
2018-10-12T10:33:00.316Z,6.10
2018-10-12T10:35:29.965Z,6.37
2018-10-12T10:37:59.688Z,6.27
2018-10-12T10:40:29.337Z,7.10
2018-10-12T10:43:02.692Z,7.17
2018-10-12T10:45:32.362Z,7.27
2018-10-12T10:48:03.420Z,5.63
2018-10-12T10:50:34.296Z,7.43
2018-10-12T10:53:06.921Z,6.07
2018-10-12T10:55:36.560Z,8.07
2018-10-12T10:58:06.208Z,6.43
2018-10-12T11:00:36.817Z,5.57
2018-10-12T11:03:07.718Z,6.37
2018-10-12T11:05:39.296Z,5.53
2018-10-12T11:08:18.690Z,4.97
2018-10-12T11:10:49.181Z,5.87
2018-10-12T11:13:20.367Z,4.77
2018-10-12T11:15:51.632Z,5.40
2018-10-12T11:18:21.285Z,3.97
2018-10-12T11:20:51.289Z,4.73
2018-10-12T11:23:23.568Z,4.20
2018-10-12T11:25:53.209Z,5.53
2018-10-12T11:28:22.921Z,5.63
2018-10-12T11:30:52.581Z,5.03
2018-10-12T11:33:24.159Z,4.30
2018-10-12T11:35:54.672Z,7.07
2018-10-12T11:38:24.333Z,4.07
2018-10-12T11:40:55.321Z,6.60
2018-10-12T11:43:30.262Z,3.60
2018-10-12T11:46:00.590Z,4.93
2018-10-12T11:48:31.102Z,3.93
2018-10-12T11:51:01.681Z,3.90
2018-10-12T11:53:33.132Z,4.03
2018-10-12T11:56:03.835Z,5.07
2018-10-12T11:58:35.400Z,3.90
2018-10-12T12:01:05.921Z,4.43
2018-10-12T12:03:37.085Z,4.47
2018-10-12T12:06:09.064Z,4.20
2018-10-12T12:08:40.173Z,6.23
2018-10-12T12:11:11.742Z,4.63
2018-10-12T12:13:43.382Z,4.73
2018-10-12T12:16:13.222Z,4.37
2018-10-12T12:18:42.860Z,4.10
2018-10-12T12:21:14.361Z,4.80
2018-10-12T12:23:45.105Z,6.70
2018-10-12T12:26:14.717Z,7.30
2018-10-12T12:28:47.146Z,5.53
2018-10-12T12:31:18.068Z,6.60
2018-10-12T12:33:47.682Z,8.53
2018-10-12T12:36:17.712Z,6.27
2018-10-12T12:38:47.312Z,5.23
2018-10-12T12:41:18.676Z,5.00
2018-10-12T12:50:01.481Z,5.13
2018-10-12T12:52:32.365Z,6.90
2018-10-12T12:55:02.177Z,4.27
2018-10-12T12:57:31.906Z,5.17
2018-10-12T13:00:01.573Z,6.17
2018-10-12T13:02:31.298Z,4.57
2018-10-12T13:05:00.929Z,4.07
2018-10-12T13:07:32.448Z,7.13
2018-10-12T13:10:02.100Z,4.53
2018-10-12T13:12:31.779Z,7.10
2018-10-12T13:15:01.509Z,5.43
2018-10-12T13:17:32.243Z,4.33
2018-10-12T13:20:04.219Z,7.17
2018-10-12T13:22:33.841Z,4.97
2018-10-12T13:25:03.489Z,5.93
2018-10-12T13:27:35.093Z,4.77
2018-10-12T13:30:04.796Z,4.07
2018-10-12T13:32:34.512Z,4.17
2018-10-12T13:35:04.246Z,3.77
2018-10-12T13:37:34.916Z,6.90
2018-10-12T13:40:04.658Z,4.17
2018-10-12T13:42:35.402Z,4.20
2018-10-12T13:45:05.020Z,4.00
2018-10-12T13:47:35.579Z,4.53
2018-10-12T13:50:08.691Z,4.07
2018-10-12T13:52:39.377Z,4.43
2018-10-12T13:55:10.137Z,4.90
2018-10-12T13:57:39.777Z,3.80
2018-10-12T14:00:10.426Z,4.47
2018-10-12T14:02:42.618Z,3.83
2018-10-12T14:05:12.259Z,12.57
2018-10-12T14:07:42.593Z,3.70
2018-10-12T14:10:12.780Z,4.13
2018-10-12T14:12:42.428Z,6.20
2018-10-12T14:15:12.058Z,5.67
2018-10-12T14:17:41.700Z,5.53
2018-10-12T14:20:16.375Z,4.63
2018-10-12T14:22:49.186Z,4.77
2018-10-12T14:25:21.262Z,5.97
2018-10-12T14:27:53.116Z,6.90
2018-10-12T14:30:23.647Z,5.63
2018-10-12T14:32:56.085Z,6.33
2018-10-12T14:35:26.586Z,4.13
2018-10-12T14:38:00.629Z,5.67
2018-10-12T14:40:32.476Z,4.83
2018-10-12T14:43:02.133Z,6.17
2018-10-12T14:45:31.775Z,4.57
2018-10-12T14:48:02.340Z,6.00
2018-10-12T14:50:33.336Z,4.87
2018-10-12T14:53:05.610Z,6.20
2018-10-12T14:55:35.250Z,5.43
2018-10-12T14:58:06.940Z,5.83
2018-10-12T15:00:37.559Z,6.63
2018-10-12T15:03:11.383Z,9.20
2018-10-12T15:05:41.205Z,5.33
2018-10-12T15:08:12.192Z,8.27
2018-10-12T15:10:41.974Z,7.50
2018-10-12T15:13:13.519Z,5.67
2018-10-12T15:15:44.789Z,5.67
2018-10-12T15:18:15.393Z,4.63
2018-10-12T15:20:45.377Z,5.87
2018-10-12T15:23:15.753Z,31.77
2018-10-12T15:25:50.236Z,8.97
2018-10-12T15:28:20.716Z,6.37
2018-10-12T15:30:51.501Z,8.40
2018-10-12T15:33:34.474Z,6.83
2018-10-12T15:36:04.315Z,5.00
2018-10-12T15:38:36.037Z,5.63
2018-10-12T15:41:08.082Z,5.37
2018-10-12T15:43:38.634Z,6.00
2018-10-12T15:46:08.655Z,4.93
2018-10-12T15:48:40.093Z,7.47
2018-10-12T15:51:14.055Z,5.50
2018-10-12T15:53:45.258Z,8.57
2018-10-12T15:56:15.813Z,5.20
2018-10-12T15:58:46.620Z,5.30
2018-10-12T16:01:20.887Z,5.80
2018-10-12T16:04:16.096Z,5.60
2018-10-12T16:06:48.725Z,6.07
2018-10-12T16:09:18.825Z,7.30
2018-10-12T16:11:49.974Z,7.13
2018-10-12T16:14:22.355Z,7.83
2018-10-12T16:16:52.372Z,10.70
2018-10-12T16:19:23.395Z,6.53
2018-10-12T16:21:53.400Z,6.47
2018-10-12T16:24:25.985Z,6.47
2018-10-12T16:26:55.994Z,6.83
2018-10-12T16:29:27.360Z,6.67
2018-10-12T16:31:57.432Z,9.23
2018-10-12T16:34:28.258Z,8.77
2018-10-12T16:36:59.986Z,8.17
2018-10-12T16:39:31.208Z,6.60
2018-10-12T16:42:02.660Z,7.07
2018-10-12T16:44:32.755Z,8.03
2018-10-12T16:47:02.835Z,7.93
2018-10-12T16:49:36.067Z,10.57
2018-10-12T16:52:09.377Z,9.27
2018-10-12T16:54:41.174Z,7.03
2018-10-12T16:57:41.520Z,7.90
2018-10-12T17:00:15.418Z,7.73
2018-10-12T17:02:45.571Z,10.20
2018-10-12T17:05:18.031Z,12.53
2018-10-12T17:07:48.911Z,11.20
2018-10-12T17:10:20.342Z,9.10
2018-10-12T17:12:53.341Z,9.10
2018-10-12T17:15:25.672Z,10.10
2018-10-12T17:18:01.279Z,14.83
2018-10-12T17:20:34.110Z,13.17
2018-10-12T17:23:05.296Z,9.33
2018-10-12T17:25:37.398Z,9.07
2018-10-12T17:28:08.717Z,11.70
2018-10-12T17:30:40.697Z,10.17
2018-10-12T17:33:11.652Z,10.43
2018-10-12T17:35:44.577Z,10.60
2018-10-12T17:38:16.562Z,11.47
2018-10-12T17:40:48.383Z,8.93
2018-10-12T17:43:20.524Z,10.20
2018-10-12T17:45:54.851Z,10.27
2018-10-12T17:48:26.639Z,13.10
2018-10-12T17:51:00.565Z,11.20
2018-10-12T17:53:30.935Z,15.60
2018-10-12T17:56:01.069Z,9.07
2018-10-12T17:58:32.814Z,9.60
2018-10-12T18:01:08.426Z,12.57
2018-10-12T18:03:45.493Z,11.90
2018-10-12T18:06:16.244Z,11.00
2018-10-12T18:08:46.431Z,9.27
2018-10-12T18:11:16.522Z,11.03
2018-10-12T18:13:47.642Z,10.03
2018-10-12T18:16:21.456Z,10.67
2018-10-12T18:18:52.497Z,10.17
2018-10-12T18:21:24.770Z,11.73
2018-10-12T18:23:56.687Z,12.70
2018-10-12T18:26:27.868Z,11.67
2018-10-12T18:29:02.166Z,10.40
2018-10-12T18:31:34.176Z,12.50
2018-10-12T18:34:08.969Z,10.40
2018-10-12T18:36:43.748Z,11.27
2018-10-12T18:39:17.789Z,10.53
2018-10-12T18:41:50.250Z,10.87
2018-10-12T18:44:20.335Z,12.27
2018-10-12T18:46:51.745Z,10.57
2018-10-12T18:49:22.777Z,13.57
2018-10-12T18:51:58.657Z,11.77
2018-10-12T18:54:28.713Z,10.47
2018-10-12T18:56:59.167Z,10.50
2018-10-12T18:59:32.545Z,12.87
2018-10-12T19:02:02.715Z,12.10
2018-10-12T19:04:33.118Z,12.13
2018-10-12T19:07:05.481Z,12.30
2018-10-12T19:09:36.336Z,12.27
2018-10-12T19:12:07.626Z,10.47
2018-10-12T19:14:39.008Z,13.90
2018-10-12T19:17:09.402Z,11.53
2018-10-12T19:19:40.813Z,14.33
2018-10-12T19:22:14.470Z,11.90
2018-10-12T19:24:46.311Z,10.43
2018-10-12T19:27:27.250Z,14.50
2018-10-12T19:30:03.106Z,13.97
2018-10-12T19:32:36.308Z,10.73
2018-10-12T19:35:09.411Z,14.83
2018-10-12T19:37:41.416Z,10.93
2018-10-12T19:40:14.187Z,10.23
2018-10-12T19:42:46.477Z,12.40
2018-10-12T19:45:21.311Z,11.30
2018-10-12T19:47:52.775Z,8.93
2018-10-12T19:50:24.285Z,11.60
2018-10-12T19:53:01.237Z,10.23
2018-10-12T19:55:33.672Z,10.13
2018-10-12T19:58:05.772Z,11.47
2018-10-12T20:00:36.843Z,9.00
2018-10-12T20:03:07.599Z,10.73
2018-10-12T20:05:42.400Z,8.23
2018-10-12T20:08:13.282Z,10.23
2018-10-12T20:10:44.291Z,11.73
2018-10-12T20:13:15.710Z,10.80
2018-10-12T20:15:50.267Z,9.07
2018-10-12T20:18:22.465Z,9.03
2018-10-12T20:20:54.366Z,10.67
2018-10-12T20:23:25.479Z,12.70
2018-10-12T20:25:56.019Z,10.13
2018-10-12T20:28:26.060Z,8.87
2018-10-12T20:30:56.219Z,13.43
2018-10-12T20:33:26.251Z,11.27
2018-10-12T20:35:58.862Z,9.60
2018-10-12T20:38:30.767Z,10.20
2018-10-12T20:41:03.564Z,9.87
2018-10-12T20:43:37.066Z,9.93
2018-10-12T20:46:09.612Z,10.60
2018-10-12T20:48:40.522Z,10.07
2018-10-12T20:51:12.856Z,13.90
2018-10-12T20:53:45.337Z,10.40
2018-10-12T20:56:15.352Z,9.10
2018-10-12T20:58:47.506Z,15.47
2018-10-12T21:01:21.383Z,12.83
2018-10-12T21:03:53.869Z,9.70
2018-10-12T21:06:24.442Z,11.37
2018-10-12T21:08:55.369Z,8.60
2018-10-12T21:11:25.433Z,9.20
2018-10-12T21:13:55.411Z,10.70
2018-10-12T21:16:28.822Z,9.90
2018-10-12T21:18:59.923Z,11.30
2018-10-12T21:21:30.847Z,9.27
2018-10-12T21:24:01.801Z,9.30
2018-10-12T21:26:33.207Z,10.90
2018-10-12T21:29:03.253Z,10.50
2018-10-12T21:31:34.392Z,10.63
2018-10-12T21:34:04.057Z,11.67
2018-10-12T21:36:34.245Z,14.27
2018-10-12T21:39:05.018Z,11.20
2018-10-12T21:41:37.205Z,11.90
2018-10-12T21:44:08.618Z,11.27
2018-10-12T21:46:42.856Z,11.50
2018-10-12T21:49:13.393Z,10.33
2018-10-12T21:51:44.527Z,10.57
2018-10-12T21:54:14.559Z,11.33
2018-10-12T21:56:45.173Z,11.00
2018-10-12T21:59:14.846Z,12.47
2018-10-12T22:01:45.381Z,10.97
2018-10-12T22:04:15.013Z,12.90
2018-10-12T22:06:44.621Z,13.57
2018-10-12T22:09:14.598Z,13.47
2018-10-12T22:11:46.881Z,11.03
2018-10-12T22:14:17.676Z,10.33
2018-10-12T22:16:48.153Z,10.80
2018-10-12T22:19:18.455Z,11.53
2018-10-12T22:21:48.123Z,11.23
2018-10-12T22:24:18.213Z,10.97
2018-10-12T22:26:49.230Z,11.97
2018-10-12T22:29:18.865Z,9.87
2018-10-12T22:31:53.355Z,11.77
2018-10-12T22:34:23.817Z,10.40
2018-10-12T22:36:54.721Z,12.63
2018-10-12T22:39:24.460Z,10.40
2018-10-12T22:41:54.115Z,9.53
2018-10-12T22:44:24.654Z,11.27
2018-10-12T22:46:54.651Z,10.60
2018-10-12T22:49:24.320Z,10.73
2018-10-12T22:51:54.281Z,11.80
2018-10-12T22:54:25.301Z,11.37
2018-10-12T22:56:54.929Z,11.13
2018-10-12T22:59:25.805Z,10.57
2018-10-12T23:01:55.543Z,11.83
2018-10-12T23:04:25.198Z,16.43
2018-10-12T23:06:55.362Z,9.00
2018-10-12T23:09:26.005Z,12.37
2018-10-12T23:11:55.689Z,13.97
2018-10-12T23:14:27.077Z,11.70
2018-10-12T23:16:56.762Z,10.63
2018-10-12T23:19:35.501Z,11.40
2018-10-12T23:22:05.262Z,13.43
2018-10-12T23:24:35.637Z,14.20
2018-10-12T23:27:06.232Z,9.20
2018-10-12T23:29:39.260Z,11.87
2018-10-12T23:32:09.696Z,12.80
2018-10-12T23:34:41.616Z,11.53
2018-10-12T23:37:12.600Z,8.77
2018-10-12T23:39:43.616Z,12.03
2018-10-12T23:42:13.277Z,12.03
2018-10-12T23:44:44.364Z,10.13
2018-10-12T23:47:14.114Z,9.30
2018-10-12T23:49:44.573Z,13.97
2018-10-12T23:52:16.226Z,12.90
2018-10-12T23:54:45.937Z,10.17
2018-10-12T23:57:18.617Z,10.47
2018-10-12T23:59:49.841Z,9.57
